createdAt,value
2023-04-01T00:01:48.156Z,97.35
2023-04-01T00:04:14.870Z,97.52
2023-04-01T00:06:41.641Z,97.34
2023-04-01T00:09:08.433Z,97.29
2023-04-01T00:11:35.022Z,97.67
2023-04-01T00:14:01.748Z,97.29
2023-04-01T00:16:28.626Z,97.76
2023-04-01T00:18:55.369Z,97.50
2023-04-01T00:21:23.277Z,97.49
2023-04-01T00:23:51.698Z,97.81
2023-04-01T00:26:21.525Z,98.08
2023-04-01T00:28:48.602Z,97.97
2023-04-01T00:31:15.731Z,98.08
2023-04-01T00:33:42.415Z,97.41
2023-04-01T00:36:14.237Z,97.57
2023-04-01T00:38:42.727Z,97.69
2023-04-01T00:41:15.171Z,97.70
2023-04-01T00:43:46.596Z,97.66
2023-04-01T00:46:13.320Z,97.77
2023-04-01T00:48:45.634Z,97.66
2023-04-01T00:51:19.347Z,97.63
2023-04-01T00:53:49.675Z,97.86
2023-04-01T00:56:56.934Z,97.92
2023-04-01T00:59:28.144Z,97.75
2023-04-01T01:01:55.047Z,97.80
2023-04-01T01:04:22.962Z,98.16
2023-04-01T01:06:58.347Z,98.08
2023-04-01T01:09:59.131Z,98.05
2023-04-01T01:12:43.306Z,98.03
2023-04-01T01:15:48.259Z,98.09
2023-04-01T01:18:36.621Z,98.27
2023-04-01T01:21:31.587Z,98.16
2023-04-01T01:24:13.365Z,98.09
2023-04-01T01:26:42.877Z,98.24
2023-04-01T01:29:21.729Z,98.95
2023-04-01T01:32:12.700Z,98.71
2023-04-01T01:34:48.117Z,98.49
2023-04-01T01:37:20.155Z,98.35
2023-04-01T01:39:50.762Z,98.55
2023-04-01T01:42:22.898Z,98.16
2023-04-01T01:44:53.200Z,98.69
2023-04-01T01:47:24.262Z,98.37
2023-04-01T01:49:52.659Z,98.44
2023-04-01T01:52:23.053Z,98.61
2023-04-01T01:54:55.168Z,98.46
2023-04-01T01:57:29.656Z,98.76
2023-04-01T02:00:04.151Z,98.79
2023-04-01T02:02:33.085Z,98.71
2023-04-01T02:04:59.935Z,98.71
2023-04-01T02:07:32.591Z,99.23
2023-04-01T02:09:59.269Z,99.18
2023-04-01T02:12:26.149Z,98.79
2023-04-01T02:14:55.086Z,98.66
2023-04-01T02:17:24.620Z,98.94
2023-04-01T02:19:57.123Z,99.26
2023-04-01T02:22:36.936Z,99.02
2023-04-01T02:25:12.109Z,99.36
2023-04-01T02:27:40.189Z,99.13
2023-04-01T02:30:10.043Z,99.43
2023-04-01T02:32:39.331Z,99.17
2023-04-01T02:35:12.898Z,99.37
2023-04-01T02:37:43.537Z,98.92
2023-04-01T02:40:13.333Z,98.88
2023-04-01T02:42:40.472Z,98.96
2023-04-01T02:45:08.124Z,98.90
2023-04-01T02:47:36.917Z,98.96
2023-04-01T02:50:03.993Z,98.81
2023-04-01T02:52:33.571Z,99.13
2023-04-01T02:55:00.157Z,99.41
2023-04-01T02:57:27.007Z,99.54
2023-04-01T02:59:53.716Z,99.41
2023-04-01T03:02:23.131Z,99.56
2023-04-01T03:04:49.817Z,99.82
2023-04-01T03:07:16.555Z,99.56
2023-04-01T03:09:43.315Z,99.54
2023-04-01T03:12:09.977Z,99.43
2023-04-01T03:14:36.628Z,99.25
2023-04-01T03:17:03.285Z,99.16
2023-04-01T03:19:30.072Z,99.49
2023-04-01T03:21:56.700Z,99.33
2023-04-01T03:24:23.442Z,99.38
2023-04-01T03:26:50.378Z,99.57
2023-04-01T03:29:17.339Z,99.40
2023-04-01T03:31:44.314Z,99.83
2023-04-01T03:34:11.464Z,99.37
2023-04-01T03:36:38.266Z,99.50
2023-04-01T03:39:06.102Z,99.93
2023-04-01T03:41:36.056Z,99.53
2023-04-01T03:44:05.368Z,99.87
2023-04-01T03:46:34.415Z,99.65
2023-04-01T03:49:01.188Z,99.61
2023-04-01T03:51:30.350Z,99.71
2023-04-01T03:53:56.976Z,99.83
2023-04-01T03:56:23.574Z,99.48
2023-04-01T03:58:50.216Z,99.32
2023-04-01T04:01:22.792Z,99.86
2023-04-01T04:03:53.616Z,99.85
2023-04-01T04:06:20.709Z,99.58
2023-04-01T04:08:50.193Z,100.00
2023-04-01T04:11:17.245Z,100.00
2023-04-01T04:13:44.433Z,99.73
2023-04-01T04:16:12.724Z,99.78
2023-04-01T04:18:39.585Z,99.96
2023-04-01T04:21:12.414Z,99.47
2023-04-01T04:23:44.311Z,99.74
2023-04-01T04:26:13.861Z,99.87
2023-04-01T04:28:40.732Z,100.00
2023-04-01T04:31:08.778Z,100.00
2023-04-01T04:33:36.305Z,100.00
2023-04-01T04:36:05.469Z,100.00
2023-04-01T04:38:34.446Z,100.00
2023-04-01T04:41:01.123Z,100.00
2023-04-01T04:43:28.045Z,100.00
2023-04-01T04:45:54.812Z,100.00
2023-04-01T04:48:24.675Z,100.00
2023-04-01T04:50:52.148Z,100.00
2023-04-01T04:53:21.213Z,100.00
2023-04-01T04:55:50.450Z,99.99
2023-04-01T04:58:18.264Z,100.00
2023-04-01T05:00:45.572Z,99.89
2023-04-01T05:03:12.960Z,99.98
2023-04-01T05:05:40.625Z,99.85
2023-04-01T05:08:07.557Z,100.00
2023-04-01T05:10:34.383Z,100.00
2023-04-01T05:13:01.050Z,100.00
2023-04-01T05:15:27.685Z,100.00
2023-04-01T05:17:56.471Z,100.00
2023-04-01T05:20:23.063Z,100.00
2023-04-01T05:22:49.770Z,100.00
2023-04-01T05:25:18.796Z,100.00
2023-04-01T05:27:45.709Z,100.00
2023-04-01T05:30:12.767Z,100.00
2023-04-01T05:32:39.500Z,100.00
2023-04-01T05:35:08.963Z,100.00
2023-04-01T05:37:36.266Z,100.00
2023-04-01T05:40:06.298Z,100.00
2023-04-01T05:42:33.060Z,99.91
2023-04-01T05:45:03.404Z,99.81
2023-04-01T05:47:30.494Z,100.00
2023-04-01T05:49:59.537Z,100.00
2023-04-01T05:52:26.421Z,100.00
2023-04-01T05:54:53.220Z,100.00
2023-04-01T05:57:19.945Z,100.00
2023-04-01T05:59:49.157Z,100.00
2023-04-01T06:02:21.020Z,100.00
2023-04-01T06:04:47.824Z,100.00
2023-04-01T06:07:16.394Z,100.00
2023-04-01T06:09:47.026Z,99.97
2023-04-01T06:12:30.876Z,100.00
2023-04-01T06:15:09.789Z,100.00
2023-04-01T06:17:56.487Z,100.00
2023-04-01T06:20:23.136Z,100.00
2023-04-01T06:23:21.241Z,100.00
2023-04-01T06:25:47.719Z,100.00
2023-04-01T06:28:59.146Z,100.00
2023-04-01T06:31:35.016Z,100.00
2023-04-01T06:34:20.373Z,100.00
2023-04-01T06:37:08.037Z,100.00
2023-04-01T06:39:54.477Z,100.00
2023-04-01T06:42:49.057Z,100.00
2023-04-01T06:45:44.561Z,100.00
2023-04-01T06:48:41.822Z,100.00
2023-04-01T06:51:25.826Z,100.00
2023-04-01T06:54:27.028Z,100.00
2023-04-01T06:57:02.362Z,100.00
2023-04-01T06:59:36.846Z,100.00
2023-04-01T07:02:22.092Z,100.00
2023-04-01T07:04:57.140Z,100.00
2023-04-01T07:07:51.125Z,100.00
2023-04-01T07:10:37.371Z,100.00
2023-04-01T07:13:11.934Z,100.00
2023-04-01T07:15:42.437Z,100.00
2023-04-01T07:18:14.843Z,100.00
2023-04-01T07:20:44.506Z,100.00
2023-04-01T07:23:29.634Z,100.00
2023-04-01T07:26:15.775Z,100.00
2023-04-01T07:28:42.508Z,100.00
2023-04-01T07:31:31.968Z,100.00
2023-04-01T07:34:15.418Z,99.62
2023-04-01T07:36:48.240Z,99.42
2023-04-01T07:39:31.430Z,99.14
2023-04-01T07:42:21.533Z,99.20
2023-04-01T07:45:13.109Z,98.98
2023-04-01T07:47:50.562Z,98.96
2023-04-01T07:50:29.617Z,99.06
2023-04-01T07:53:19.355Z,99.03
2023-04-01T07:55:58.583Z,98.71
2023-04-01T07:58:54.383Z,99.29
2023-04-01T08:01:43.303Z,99.06
2023-04-01T08:04:26.730Z,99.26
2023-04-01T08:07:21.469Z,99.49
2023-04-01T08:10:09.482Z,99.31
2023-04-01T08:12:48.755Z,99.37
2023-04-01T08:15:30.155Z,99.15
2023-04-01T08:18:06.866Z,99.30
2023-04-01T08:20:51.547Z,99.60
2023-04-01T08:23:25.749Z,99.55
2023-04-01T08:26:03.808Z,99.40
2023-04-01T08:28:47.536Z,99.42
2023-04-01T08:31:54.895Z,99.48
2023-04-01T08:34:27.277Z,99.37
2023-04-01T08:37:02.632Z,99.41
2023-04-01T08:39:47.405Z,99.78
2023-04-01T08:42:20.948Z,99.37
2023-04-01T08:45:08.946Z,99.42
2023-04-01T08:48:02.399Z,99.04
2023-04-01T08:50:40.342Z,98.68
2023-04-01T08:53:28.519Z,99.16
2023-04-01T08:56:19.153Z,99.32
2023-04-01T08:59:10.556Z,99.00
2023-04-01T09:01:57.879Z,98.83
2023-04-01T09:04:46.302Z,98.57
2023-04-01T09:07:55.850Z,98.34
2023-04-01T09:10:50.670Z,98.57
2023-04-01T09:13:41.797Z,98.82
2023-04-01T09:16:27.531Z,98.89
2023-04-01T09:19:00.982Z,99.26
2023-04-01T09:21:42.610Z,99.10
2023-04-01T09:24:30.855Z,99.22
2023-04-01T09:27:04.891Z,98.79
2023-04-01T09:29:59.434Z,99.23
2023-04-01T09:33:05.353Z,99.38
2023-04-01T09:35:50.794Z,99.16
2023-04-01T09:38:32.419Z,99.11
2023-04-01T09:41:08.485Z,99.06
2023-04-01T09:44:14.933Z,99.06
2023-04-01T09:47:09.966Z,99.03
2023-04-01T09:50:03.999Z,98.59
2023-04-01T09:52:51.464Z,98.31
2023-04-01T09:55:37.605Z,98.12
2023-04-01T09:58:25.982Z,98.34
2023-04-01T10:01:29.900Z,98.22
2023-04-01T10:04:18.437Z,98.02
2023-04-01T10:07:23.222Z,98.17
2023-04-01T10:10:16.089Z,98.14
2023-04-01T10:13:03.652Z,98.41
2023-04-01T10:15:42.438Z,98.70
2023-04-01T10:18:33.559Z,98.59
2023-04-01T10:21:26.312Z,98.44
2023-04-01T10:24:11.226Z,98.65
2023-04-01T10:26:59.506Z,98.49
2023-04-01T10:29:57.583Z,98.21
2023-04-01T10:33:01.518Z,97.91
2023-04-01T10:36:07.006Z,97.39
2023-04-01T10:38:45.979Z,97.21
2023-04-01T10:41:43.845Z,97.10
2023-04-01T10:44:22.534Z,96.81
2023-04-01T10:47:11.040Z,96.65
2023-04-01T10:50:14.985Z,96.62
2023-04-01T10:53:09.663Z,96.61
2023-04-01T10:55:50.216Z,96.86
2023-04-01T10:58:43.989Z,96.96
2023-04-01T11:01:22.922Z,96.20
2023-04-01T11:04:20.075Z,96.42
2023-04-01T11:07:31.473Z,96.68
2023-04-01T11:10:22.275Z,96.17
2023-04-01T11:13:17.885Z,96.24
2023-04-01T11:16:08.786Z,95.71
2023-04-01T11:18:44.357Z,95.92
2023-04-01T11:21:38.448Z,95.79
2023-04-01T11:24:22.716Z,95.61
2023-04-01T11:26:57.039Z,95.61
2023-04-01T11:29:26.352Z,95.82
2023-04-01T11:32:04.195Z,96.14
2023-04-01T11:34:49.904Z,96.44
2023-04-01T11:37:16.395Z,96.36
2023-04-01T11:39:43.229Z,96.52
2023-04-01T11:42:34.220Z,96.43
2023-04-01T11:45:24.974Z,96.53
2023-04-01T11:48:12.680Z,96.22
2023-04-01T11:51:10.798Z,95.70
2023-04-01T11:53:57.932Z,95.96
2023-04-01T11:56:48.930Z,96.11
2023-04-01T11:59:42.529Z,95.99
2023-04-01T12:03:09.265Z,96.01
2023-04-01T12:05:49.010Z,96.00
2023-04-01T12:08:46.644Z,96.04
2023-04-01T12:11:47.048Z,95.81
2023-04-01T12:14:48.282Z,95.67
2023-04-01T12:17:44.416Z,95.24
2023-04-01T12:20:32.446Z,95.76
2023-04-01T12:23:25.294Z,96.06
2023-04-01T12:25:58.770Z,96.07
2023-04-01T12:28:50.405Z,95.83
2023-04-01T12:31:30.487Z,95.95
2023-04-01T12:34:23.174Z,95.92
2023-04-01T12:36:53.898Z,95.85
2023-04-01T12:39:35.228Z,96.33
2023-04-01T12:42:24.358Z,96.24
2023-04-01T12:45:10.109Z,96.11
2023-04-01T12:48:12.054Z,96.51
2023-04-01T12:51:31.465Z,96.79
2023-04-01T12:54:17.320Z,96.92
2023-04-01T12:57:02.972Z,96.84
2023-04-01T12:59:30.280Z,96.82
2023-04-01T13:02:11.666Z,96.90
2023-04-01T13:04:44.495Z,96.75
2023-04-01T13:07:24.813Z,96.79
2023-04-01T13:10:04.027Z,96.77
2023-04-01T13:12:59.763Z,96.53
2023-04-01T13:15:41.822Z,96.34
2023-04-01T13:18:21.182Z,96.36
2023-04-01T13:21:10.030Z,96.64
2023-04-01T13:24:02.297Z,96.81
2023-04-01T13:26:58.293Z,96.93
2023-04-01T13:30:08.802Z,96.79
2023-04-01T13:33:01.979Z,96.89
2023-04-01T13:35:58.617Z,96.76
2023-04-01T13:38:54.850Z,96.19
2023-04-01T13:41:30.843Z,96.24
2023-04-01T13:44:29.076Z,96.44
2023-04-01T13:47:18.493Z,96.25
2023-04-01T13:50:11.166Z,96.62
2023-04-01T13:52:56.051Z,96.70
2023-04-01T13:56:10.728Z,97.17
2023-04-01T13:59:08.952Z,97.12
2023-04-01T14:01:57.385Z,97.36
2023-04-01T14:04:54.858Z,97.14
2023-04-01T14:07:43.690Z,97.17
2023-04-01T14:10:50.422Z,97.39
2023-04-01T14:13:29.744Z,97.71
2023-04-01T14:16:13.148Z,97.62
2023-04-01T14:18:55.005Z,97.77
2023-04-01T14:21:24.548Z,97.81
2023-04-01T14:24:29.370Z,97.87
2023-04-01T14:27:09.164Z,97.86
2023-04-01T14:29:48.936Z,97.90
2023-04-01T14:32:47.749Z,97.83
2023-04-01T14:35:17.445Z,97.92
2023-04-01T14:37:56.142Z,97.84
2023-04-01T14:40:37.732Z,98.06
2023-04-01T14:43:26.325Z,98.04
2023-04-01T14:46:07.996Z,98.26
2023-04-01T14:48:53.977Z,98.50
2023-04-01T14:51:34.676Z,98.52
2023-04-01T14:54:23.870Z,98.25
2023-04-01T14:57:04.490Z,98.02
2023-04-01T14:59:31.220Z,97.77
2023-04-01T15:02:34.922Z,97.22
2023-04-01T15:05:32.324Z,96.59
2023-04-01T15:08:17.473Z,96.31
2023-04-01T15:11:02.298Z,96.38
2023-04-01T15:13:32.004Z,96.78
2023-04-01T15:16:21.806Z,97.04
2023-04-01T15:19:03.747Z,97.09
2023-04-01T15:22:06.741Z,97.41
2023-04-01T15:25:06.824Z,97.22
2023-04-01T15:27:45.944Z,97.35
2023-04-01T15:30:19.662Z,97.51
2023-04-01T15:33:15.983Z,97.83
2023-04-01T15:35:42.619Z,97.90
2023-04-01T15:38:46.671Z,97.90
2023-04-01T15:41:44.124Z,97.86
2023-04-01T15:44:48.239Z,97.78
2023-04-01T15:47:26.940Z,97.85
2023-04-01T15:49:58.232Z,97.77
2023-04-01T15:53:02.526Z,98.03
2023-04-01T15:55:38.297Z,97.90
2023-04-01T15:58:32.119Z,98.31
2023-04-01T16:01:26.950Z,98.61
2023-04-01T16:04:16.826Z,98.59
2023-04-01T16:07:03.730Z,98.92
2023-04-01T16:09:56.182Z,99.06
2023-04-01T16:12:38.061Z,99.30
2023-04-01T16:15:13.808Z,99.61
2023-04-01T16:18:14.193Z,99.71
2023-04-01T16:20:58.798Z,99.37
2023-04-01T16:23:43.857Z,99.53
2023-04-01T16:26:28.932Z,99.53
2023-04-01T16:28:57.779Z,99.46
2023-04-01T16:31:54.817Z,99.68
2023-04-01T16:34:44.453Z,99.84
2023-04-01T16:37:17.196Z,99.93
2023-04-01T16:40:30.951Z,100.00
2023-04-01T16:43:17.781Z,100.00
2023-04-01T16:45:55.194Z,99.76
2023-04-01T16:48:29.287Z,100.00
2023-04-01T16:51:20.880Z,100.00
2023-04-01T16:54:14.275Z,100.00
2023-04-01T16:56:48.650Z,100.00
2023-04-01T16:59:25.223Z,100.00
2023-04-01T17:02:01.197Z,100.00
2023-04-01T17:04:42.890Z,100.00
2023-04-01T17:07:27.819Z,100.00
2023-04-01T17:10:22.711Z,100.00
2023-04-01T17:13:31.593Z,100.00
2023-04-01T17:16:07.411Z,100.00
2023-04-01T17:18:51.242Z,100.00
2023-04-01T17:21:40.316Z,100.00
2023-04-01T17:24:28.525Z,100.00
2023-04-01T17:27:24.505Z,100.00
2023-04-01T17:30:01.008Z,100.00
2023-04-01T17:32:58.013Z,100.00
2023-04-01T17:35:42.292Z,100.00
2023-04-01T17:38:33.753Z,100.00
2023-04-01T17:41:16.977Z,100.00
2023-04-01T17:43:52.742Z,100.00
2023-04-01T17:46:46.141Z,100.00
2023-04-01T17:49:37.567Z,100.00
2023-04-01T17:52:18.704Z,100.00
2023-04-01T17:55:08.669Z,100.00
2023-04-01T17:57:53.595Z,100.00
2023-04-01T18:01:01.505Z,100.00
2023-04-01T18:04:20.876Z,100.00
2023-04-01T18:07:21.367Z,100.00
2023-04-01T18:09:53.702Z,100.00
2023-04-01T18:12:29.285Z,100.00
2023-04-01T18:14:58.792Z,100.00
2023-04-01T18:17:42.182Z,100.00
2023-04-01T18:20:30.720Z,100.00
2023-04-01T18:23:12.305Z,100.00
2023-04-01T18:25:47.784Z,100.00
2023-04-01T18:28:36.063Z,100.00
2023-04-01T18:31:02.764Z,100.00
2023-04-01T18:33:42.097Z,100.00
2023-04-01T18:36:27.087Z,100.00
2023-04-01T18:38:58.233Z,100.00
2023-04-01T18:41:53.937Z,100.00
2023-04-01T18:44:47.072Z,100.00
2023-04-01T18:48:07.939Z,100.00
2023-04-01T18:50:49.559Z,100.00
2023-04-01T18:53:48.119Z,100.00
2023-04-01T18:56:37.165Z,100.00
2023-04-01T18:59:43.160Z,100.00
2023-04-01T19:02:25.848Z,100.00
2023-04-01T19:05:09.101Z,100.00
2023-04-01T19:07:38.637Z,100.00
2023-04-01T19:10:17.373Z,100.00
2023-04-01T19:12:59.080Z,100.00
2023-04-01T19:15:34.120Z,100.00
2023-04-01T19:18:16.440Z,100.00
2023-04-01T19:20:57.899Z,100.00
2023-04-01T19:23:55.364Z,100.00
2023-04-01T19:26:29.148Z,100.00
2023-04-01T19:28:58.305Z,100.00
2023-04-01T19:31:42.463Z,100.00
2023-04-01T19:34:47.767Z,100.00
2023-04-01T19:37:30.566Z,100.00
2023-04-01T19:40:24.708Z,100.00
2023-04-01T19:43:32.916Z,100.00
2023-04-01T19:46:02.271Z,100.00
2023-04-01T19:49:06.540Z,100.00
2023-04-01T19:52:07.539Z,100.00
2023-04-01T19:54:59.339Z,100.00
2023-04-01T19:57:41.752Z,100.00
2023-04-01T20:00:32.728Z,100.00
2023-04-01T20:03:02.694Z,100.00
2023-04-01T20:05:57.227Z,100.00
2023-04-01T20:08:37.743Z,100.00
2023-04-01T20:12:06.434Z,100.00
2023-04-01T20:14:51.205Z,100.00
2023-04-01T20:17:33.688Z,100.00
2023-04-01T20:20:02.728Z,100.00
2023-04-01T20:22:47.201Z,100.00
2023-04-01T20:25:19.196Z,100.00
2023-04-01T20:27:51.269Z,100.00
2023-04-01T20:30:39.622Z,100.00
2023-04-01T20:33:35.073Z,100.00
2023-04-01T20:36:04.507Z,100.00
2023-04-01T20:38:34.006Z,100.00
2023-04-01T20:41:08.109Z,100.00
2023-04-01T20:43:51.556Z,100.00
2023-04-01T20:46:24.846Z,100.00
2023-04-01T20:49:16.983Z,100.00
2023-04-01T20:52:07.904Z,100.00
2023-04-01T20:54:49.833Z,100.00
2023-04-01T20:57:25.010Z,100.00
2023-04-01T21:00:12.745Z,100.00
2023-04-01T21:02:54.673Z,100.00
2023-04-01T21:05:38.646Z,100.00
2023-04-01T21:08:28.335Z,100.00
2023-04-01T21:11:39.371Z,100.00
2023-04-01T21:14:36.687Z,99.71
2023-04-01T21:17:18.331Z,99.65
2023-04-01T21:20:22.384Z,100.00
2023-04-01T21:23:13.534Z,100.00
2023-04-01T21:25:52.844Z,100.00
2023-04-01T21:28:32.601Z,100.00
2023-04-01T21:31:10.715Z,100.00
2023-04-01T21:34:05.570Z,100.00
2023-04-01T21:36:40.987Z,100.00
2023-04-01T21:39:44.798Z,100.00
2023-04-01T21:42:33.240Z,100.00
2023-04-01T21:45:02.600Z,100.00
2023-04-01T21:47:50.843Z,100.00
2023-04-01T21:50:45.141Z,100.00
2023-04-01T21:53:23.748Z,100.00
2023-04-01T21:56:14.962Z,100.00
2023-04-01T21:59:01.934Z,100.00
2023-04-01T22:01:41.030Z,100.00
2023-04-01T22:04:33.238Z,100.00
2023-04-01T22:07:18.114Z,100.00
2023-04-01T22:09:53.176Z,100.00
2023-04-01T22:12:51.309Z,100.00
2023-04-01T22:15:22.494Z,100.00
2023-04-01T22:18:35.543Z,100.00
2023-04-01T22:21:09.065Z,100.00
2023-04-01T22:23:41.156Z,99.98
2023-04-01T22:26:36.719Z,100.00
2023-04-01T22:29:23.936Z,100.00
2023-04-01T22:32:25.749Z,100.00
2023-04-01T22:35:13.792Z,99.79
2023-04-01T22:38:01.702Z,99.33
2023-04-01T22:40:59.589Z,99.76
2023-04-01T22:43:36.220Z,99.79
2023-04-01T22:46:14.870Z,99.99
2023-04-01T22:48:50.587Z,99.93
2023-04-01T22:51:34.515Z,99.93
2023-04-01T22:54:01.685Z,99.88
2023-04-01T22:56:34.929Z,99.90
2023-04-01T22:59:11.455Z,100.00
2023-04-01T23:01:46.912Z,99.58
2023-04-01T23:04:20.578Z,99.63
2023-04-01T23:06:56.030Z,99.33
2023-04-01T23:09:29.657Z,99.10
2023-04-01T23:12:02.205Z,98.77
2023-04-01T23:14:38.185Z,98.49
2023-04-01T23:17:23.735Z,98.18
2023-04-01T23:20:09.618Z,98.14
2023-04-01T23:22:56.968Z,97.77
2023-04-01T23:25:29.705Z,97.58
2023-04-01T23:28:02.347Z,97.74
2023-04-01T23:30:41.399Z,97.58
2023-04-01T23:33:23.230Z,97.84
2023-04-01T23:36:06.755Z,97.56
2023-04-01T23:38:39.369Z,97.80
2023-04-01T23:41:09.673Z,98.15
2023-04-01T23:43:42.023Z,97.88
2023-04-01T23:46:13.553Z,97.55
2023-04-01T23:48:46.900Z,97.29
2023-04-01T23:51:27.990Z,97.76
2023-04-01T23:54:04.602Z,97.45
2023-04-01T23:57:04.063Z,97.65
2023-04-01T23:59:36.549Z,97.52
